createdAt,value
2022-10-18T00:02:42.885Z,13.10
2022-10-18T00:05:30.422Z,9.05
2022-10-18T00:08:18.101Z,14.75
2022-10-18T00:11:05.952Z,11.57
2022-10-18T00:13:53.050Z,11.10
2022-10-18T00:16:40.415Z,13.72
2022-10-18T00:19:29.298Z,11.18
2022-10-18T00:22:16.526Z,15.45
2022-10-18T00:25:04.469Z,14.00
2022-10-18T00:27:52.575Z,16.80
2022-10-18T00:30:40.866Z,15.90
2022-10-18T00:33:28.219Z,18.23
2022-10-18T00:36:16.532Z,21.95
2022-10-18T00:39:06.003Z,19.75
2022-10-18T00:41:53.894Z,19.52
2022-10-18T00:44:44.130Z,22.35
2022-10-18T00:47:33.266Z,29.67
2022-10-18T00:50:22.676Z,22.82
2022-10-18T00:53:13.408Z,29.90
2022-10-18T00:56:00.791Z,21.75
2022-10-18T00:58:50.974Z,24.23
2022-10-18T01:01:38.471Z,19.60
2022-10-18T01:04:26.239Z,18.77
2022-10-18T01:07:19.656Z,22.07
2022-10-18T01:10:37.342Z,25.92
2022-10-18T01:13:53.185Z,20.88
2022-10-18T01:16:51.939Z,30.17
2022-10-18T01:20:04.596Z,24.77
2022-10-18T01:23:14.525Z,24.20
2022-10-18T01:26:20.162Z,26.60
2022-10-18T01:29:16.238Z,23.18
2022-10-18T01:32:24.090Z,31.10
2022-10-18T01:35:14.332Z,25.75
2022-10-18T01:38:04.594Z,27.65
2022-10-18T01:40:53.468Z,18.90
2022-10-18T01:43:42.707Z,20.68
2022-10-18T01:46:30.476Z,17.62
2022-10-18T01:49:17.737Z,24.45
2022-10-18T01:52:05.351Z,25.72
2022-10-18T01:54:54.109Z,24.35
2022-10-18T01:57:44.655Z,22.00
2022-10-18T02:00:34.798Z,15.75
2022-10-18T02:03:28.325Z,22.25
2022-10-18T02:06:24.397Z,20.43
2022-10-18T02:09:14.940Z,21.10
2022-10-18T02:12:03.507Z,14.90
2022-10-18T02:14:51.295Z,21.95
2022-10-18T02:17:40.551Z,20.08
2022-10-18T02:20:33.195Z,16.90
2022-10-18T02:23:24.014Z,20.35
2022-10-18T02:26:11.590Z,18.57
2022-10-18T02:28:59.248Z,19.05
2022-10-18T02:31:55.730Z,24.37
2022-10-18T02:34:46.232Z,28.27
2022-10-18T02:37:39.036Z,25.23
2022-10-18T02:40:27.358Z,26.90
2022-10-18T02:43:15.356Z,26.52
2022-10-18T02:46:03.100Z,25.80
2022-10-18T02:48:50.771Z,30.70
2022-10-18T02:51:38.341Z,28.87
2022-10-18T02:54:25.385Z,38.08
2022-10-18T02:57:12.889Z,38.92
2022-10-18T03:00:00.430Z,39.35
2022-10-18T03:02:49.134Z,41.25
2022-10-18T03:05:36.199Z,41.60
2022-10-18T03:08:23.251Z,41.90
2022-10-18T03:11:10.775Z,38.40
2022-10-18T03:13:58.361Z,35.73
2022-10-18T03:16:45.532Z,35.55
2022-10-18T03:19:33.116Z,24.15
2022-10-18T03:22:20.425Z,19.80
2022-10-18T03:25:08.006Z,19.98
2022-10-18T03:27:55.427Z,9.10
2022-10-18T03:30:43.136Z,8.50
2022-10-18T03:33:31.252Z,8.33
2022-10-18T03:36:18.745Z,6.87
2022-10-18T03:39:06.302Z,7.20
2022-10-18T03:41:53.680Z,8.95
2022-10-18T03:44:40.750Z,5.05
2022-10-18T03:47:28.143Z,5.17
2022-10-18T03:50:15.575Z,6.97
2022-10-18T03:53:02.608Z,3.27
2022-10-18T03:55:53.984Z,5.20
2022-10-18T03:58:41.348Z,4.03
2022-10-18T04:01:28.686Z,5.05
2022-10-18T04:04:15.853Z,7.62
2022-10-18T04:07:03.316Z,3.35
2022-10-18T04:09:50.508Z,6.42
2022-10-18T04:12:37.820Z,6.20
2022-10-18T04:15:24.922Z,6.10
2022-10-18T04:18:12.057Z,5.97
2022-10-18T04:20:59.395Z,5.55
2022-10-18T04:23:48.820Z,4.45
2022-10-18T04:26:35.970Z,7.35
2022-10-18T04:29:23.526Z,4.87
2022-10-18T04:32:10.861Z,4.08
2022-10-18T04:34:58.195Z,10.45
2022-10-18T04:37:45.675Z,6.85
2022-10-18T04:40:32.961Z,9.30
2022-10-18T04:43:20.124Z,4.28
2022-10-18T04:46:07.292Z,6.53
2022-10-18T04:48:54.631Z,8.93
2022-10-18T04:51:42.155Z,4.90
2022-10-18T04:54:29.392Z,7.60
2022-10-18T04:57:17.513Z,7.83
2022-10-18T05:00:05.715Z,7.28
2022-10-18T05:02:58.113Z,11.00
2022-10-18T05:06:03.199Z,6.08
2022-10-18T05:08:36.296Z,5.62
2022-10-18T05:11:23.800Z,9.75
2022-10-18T05:14:11.099Z,6.25
2022-10-18T05:16:58.639Z,7.15
2022-10-18T05:19:46.069Z,7.17
2022-10-18T05:22:33.782Z,9.43
2022-10-18T05:25:21.255Z,8.60
2022-10-18T05:28:34.437Z,8.00
2022-10-18T05:31:03.066Z,7.58
2022-10-18T05:33:50.468Z,11.10
2022-10-18T05:36:37.832Z,17.65
2022-10-18T05:39:25.364Z,16.07
2022-10-18T05:42:13.053Z,16.35
2022-10-18T05:45:00.503Z,25.88
2022-10-18T05:47:47.778Z,24.87
2022-10-18T05:50:38.143Z,28.05
2022-10-18T05:53:36.233Z,31.82
2022-10-18T05:56:14.220Z,30.20
2022-10-18T05:59:03.644Z,27.50
2022-10-18T06:01:50.822Z,23.75
2022-10-18T06:04:38.443Z,18.67
2022-10-18T06:07:25.871Z,19.00
2022-10-18T06:10:13.507Z,15.50
2022-10-18T06:13:00.819Z,15.23
2022-10-18T06:15:48.189Z,10.15
2022-10-18T06:18:35.645Z,12.43
2022-10-18T06:21:24.393Z,13.50
2022-10-18T06:24:11.564Z,13.83
2022-10-18T06:26:59.030Z,10.98
2022-10-18T06:29:46.252Z,17.40
2022-10-18T06:32:33.448Z,12.95
2022-10-18T06:35:21.155Z,15.90
2022-10-18T06:38:08.378Z,16.55
2022-10-18T06:40:56.306Z,18.55
2022-10-18T06:43:44.574Z,15.45
2022-10-18T06:46:33.186Z,19.00
2022-10-18T06:49:21.296Z,15.35
2022-10-18T06:52:08.795Z,15.98
2022-10-18T06:54:56.123Z,19.07
2022-10-18T06:57:43.468Z,16.32
2022-10-18T07:00:30.761Z,18.90
2022-10-18T07:03:20.004Z,12.98
2022-10-18T07:06:09.184Z,15.68
2022-10-18T07:08:57.411Z,11.78
2022-10-18T07:11:44.560Z,14.63
2022-10-18T07:14:32.004Z,10.85
2022-10-18T07:17:19.235Z,15.53
2022-10-18T07:20:06.915Z,13.40
2022-10-18T07:22:58.227Z,11.85
2022-10-18T07:25:45.483Z,10.80
2022-10-18T07:28:32.784Z,11.18
2022-10-18T07:31:20.698Z,10.58
2022-10-18T07:34:09.697Z,11.65
2022-10-18T07:36:56.858Z,11.35
2022-10-18T07:39:44.276Z,11.25
2022-10-18T07:42:31.766Z,8.45
2022-10-18T07:45:19.171Z,5.60
2022-10-18T07:48:06.436Z,7.90
2022-10-18T07:50:54.127Z,8.78
2022-10-18T07:53:41.911Z,5.53
2022-10-18T07:56:29.344Z,6.42
2022-10-18T07:59:16.892Z,4.75
2022-10-18T08:02:04.592Z,4.85
2022-10-18T08:04:51.673Z,4.33
2022-10-18T08:07:38.897Z,5.00
2022-10-18T08:10:26.260Z,2.60
2022-10-18T08:13:13.453Z,3.85
2022-10-18T08:16:06.609Z,3.17
2022-10-18T08:18:54.355Z,3.00
2022-10-18T08:21:41.549Z,2.67
2022-10-18T08:24:28.864Z,0.98
2022-10-18T08:27:16.499Z,1.47
2022-10-18T08:30:04.202Z,10.98
2022-10-18T08:32:51.573Z,8.68
2022-10-18T08:35:39.207Z,1.82
2022-10-18T08:38:26.461Z,1.00
2022-10-18T08:41:28.330Z,1.37
2022-10-18T08:44:27.888Z,1.70
2022-10-18T08:47:21.175Z,1.07
2022-10-18T08:50:20.629Z,3.05
2022-10-18T08:53:27.358Z,1.10
2022-10-18T08:56:15.087Z,1.80
2022-10-18T08:59:04.513Z,2.33
2022-10-18T09:02:07.122Z,2.08
2022-10-18T09:05:12.655Z,1.87
2022-10-18T09:08:18.093Z,0.55
2022-10-18T09:11:20.792Z,1.15
2022-10-18T09:14:29.127Z,0.93
2022-10-18T09:17:31.417Z,7.37
2022-10-18T09:20:25.384Z,1.75
2022-10-18T09:23:35.572Z,0.60
2022-10-18T09:26:25.491Z,0.45
2022-10-18T09:29:33.328Z,1.75
2022-10-18T09:32:26.514Z,1.85
2022-10-18T09:35:19.603Z,3.62
2022-10-18T09:38:09.913Z,4.30
2022-10-18T09:41:03.386Z,7.28
2022-10-18T09:43:59.570Z,2.30
2022-10-18T09:46:52.814Z,6.25
2022-10-18T09:49:43.147Z,0.95
2022-10-18T09:52:36.077Z,6.00
2022-10-18T09:55:29.576Z,1.70
2022-10-18T09:58:19.002Z,7.60
2022-10-18T10:01:07.237Z,1.72
2022-10-18T10:03:54.689Z,4.70
2022-10-18T10:06:45.214Z,0.80
2022-10-18T10:09:44.013Z,1.50
2022-10-18T10:12:37.035Z,3.55
2022-10-18T10:15:48.265Z,1.35
2022-10-18T10:18:38.832Z,2.75
2022-10-18T10:21:26.264Z,2.45
2022-10-18T10:24:31.026Z,3.20
2022-10-18T10:27:32.452Z,1.07
2022-10-18T10:30:37.291Z,6.05
2022-10-18T10:33:36.000Z,1.95
2022-10-18T10:36:23.557Z,4.30
2022-10-18T10:39:18.040Z,3.60
2022-10-18T10:42:07.941Z,1.92
2022-10-18T10:44:56.164Z,1.65
2022-10-18T10:47:43.687Z,3.05
2022-10-18T10:50:31.955Z,1.87
2022-10-18T10:53:46.475Z,2.55
2022-10-18T10:56:39.894Z,1.98
2022-10-18T10:59:30.100Z,1.50
2022-10-18T11:02:23.076Z,3.30
2022-10-18T11:05:29.792Z,1.15
2022-10-18T11:08:23.824Z,0.65
2022-10-18T11:11:20.677Z,1.92
2022-10-18T11:14:25.814Z,3.87
2022-10-18T11:17:10.553Z,2.35
2022-10-18T11:20:05.054Z,1.05
2022-10-18T11:22:58.754Z,0.88
2022-10-18T11:26:00.851Z,1.55
2022-10-18T11:29:01.677Z,1.45
2022-10-18T11:32:16.358Z,1.72
2022-10-18T11:35:26.177Z,1.50
2022-10-18T11:38:22.660Z,2.35
2022-10-18T11:41:46.595Z,3.05
2022-10-18T11:44:40.335Z,11.43
2022-10-18T11:47:39.185Z,8.73
2022-10-18T11:50:32.683Z,5.15
2022-10-18T11:53:23.070Z,2.87
2022-10-18T11:56:33.236Z,1.55
2022-10-18T11:59:35.488Z,3.02
2022-10-18T12:02:42.546Z,5.35
2022-10-18T12:05:31.359Z,1.07
2022-10-18T12:08:30.856Z,1.50
2022-10-18T12:11:24.138Z,2.15
2022-10-18T12:14:17.442Z,0.95
2022-10-18T12:17:39.784Z,1.10
2022-10-18T12:20:01.892Z,1.87
2022-10-18T12:23:01.248Z,1.00
2022-10-18T12:25:51.776Z,0.93
2022-10-18T12:28:58.612Z,1.00
2022-10-18T12:31:51.896Z,0.62
2022-10-18T12:34:51.515Z,0.70
2022-10-18T12:37:59.289Z,1.10
2022-10-18T12:40:49.710Z,1.77
2022-10-18T12:43:37.662Z,0.70
2022-10-18T12:46:25.516Z,1.52
2022-10-18T12:49:14.271Z,2.65
2022-10-18T12:52:10.947Z,2.22
2022-10-18T12:55:13.912Z,1.72
2022-10-18T12:58:02.718Z,1.82
2022-10-18T13:00:52.269Z,1.98
2022-10-18T13:03:44.236Z,0.82
2022-10-18T13:06:34.499Z,0.98
2022-10-18T13:09:23.049Z,2.50
2022-10-18T13:12:13.590Z,1.00
2022-10-18T13:15:25.919Z,4.72
2022-10-18T13:18:23.230Z,0.60
2022-10-18T13:21:16.859Z,0.80
2022-10-18T13:24:26.270Z,6.15
2022-10-18T13:27:40.968Z,2.15
2022-10-18T13:30:48.016Z,4.37
2022-10-18T13:33:42.999Z,1.90
2022-10-18T13:36:32.801Z,2.17
2022-10-18T13:39:21.683Z,0.60
2022-10-18T13:42:30.605Z,2.15
2022-10-18T13:45:33.187Z,3.40
2022-10-18T13:48:35.506Z,1.47
2022-10-18T13:51:35.016Z,0.70
2022-10-18T13:54:34.430Z,1.02
2022-10-18T13:57:30.126Z,4.03
2022-10-18T14:00:48.232Z,4.70
2022-10-18T14:03:58.361Z,1.85
2022-10-18T14:06:48.064Z,1.27
2022-10-18T14:09:56.114Z,0.93
2022-10-18T14:12:44.424Z,1.22
2022-10-18T14:15:35.003Z,0.93
2022-10-18T14:18:31.776Z,0.68
2022-10-18T14:21:28.730Z,1.05
2022-10-18T14:24:21.585Z,1.20
2022-10-18T14:27:29.273Z,1.60
2022-10-18T14:33:04.297Z,1.50
2022-10-18T14:36:03.809Z,0.90
2022-10-18T14:39:03.089Z,2.33
2022-10-18T14:41:55.849Z,1.05
2022-10-18T14:44:44.889Z,1.35
2022-10-18T14:47:34.225Z,5.58
2022-10-18T14:50:23.665Z,1.12
2022-10-18T14:53:13.793Z,1.40
2022-10-18T14:56:04.323Z,1.90
2022-10-18T14:58:52.424Z,1.22
2022-10-18T15:01:39.505Z,2.90
2022-10-18T15:04:34.321Z,2.02
2022-10-18T15:07:21.962Z,2.27
2022-10-18T15:10:11.455Z,0.80
2022-10-18T15:13:11.083Z,0.78
2022-10-18T15:15:51.732Z,1.65
2022-10-18T15:18:39.170Z,1.02
2022-10-18T15:21:26.739Z,2.15
2022-10-18T15:24:23.167Z,6.35
2022-10-18T15:27:13.691Z,0.88
2022-10-18T15:30:11.085Z,3.08
2022-10-18T15:33:03.290Z,1.27
2022-10-18T15:35:52.378Z,1.90
2022-10-18T15:38:40.191Z,1.37
2022-10-18T15:41:50.625Z,4.70
2022-10-18T15:44:51.603Z,4.15
2022-10-18T15:47:39.069Z,4.12
2022-10-18T15:50:41.454Z,5.47
2022-10-18T15:53:48.461Z,5.97
2022-10-18T15:56:37.922Z,4.42
2022-10-18T15:59:28.932Z,1.62
2022-10-18T16:02:16.977Z,4.05
2022-10-18T16:05:04.430Z,1.10
2022-10-18T16:07:55.347Z,1.55
2022-10-18T16:10:42.887Z,5.58
2022-10-18T16:13:30.320Z,3.00
2022-10-18T16:16:26.751Z,5.40
2022-10-18T16:19:17.962Z,3.98
2022-10-18T16:22:07.359Z,2.12
2022-10-18T16:24:54.816Z,7.30
2022-10-18T16:27:42.020Z,4.22
2022-10-18T16:30:32.590Z,4.50
2022-10-18T16:33:21.603Z,2.10
2022-10-18T16:36:08.859Z,3.60
2022-10-18T16:38:57.147Z,6.03
2022-10-18T16:41:45.232Z,4.35
2022-10-18T16:44:32.395Z,3.72
2022-10-18T16:47:19.964Z,3.25
2022-10-18T16:50:09.568Z,3.12
2022-10-18T16:52:56.906Z,2.05
2022-10-18T16:55:44.869Z,3.52
2022-10-18T16:58:34.017Z,1.95
2022-10-18T17:01:23.328Z,4.50
2022-10-18T17:04:10.778Z,2.60
2022-10-18T17:06:59.039Z,2.98
2022-10-18T17:09:47.783Z,2.55
2022-10-18T17:12:35.688Z,5.28
2022-10-18T17:15:22.965Z,5.12
2022-10-18T17:18:16.614Z,4.53
2022-10-18T17:21:03.535Z,5.50
2022-10-18T17:23:51.004Z,3.70
2022-10-18T17:26:40.102Z,10.95
2022-10-18T17:29:27.407Z,5.40
2022-10-18T17:32:14.705Z,5.87
2022-10-18T17:35:03.053Z,9.68
2022-10-18T17:37:52.042Z,10.08
2022-10-18T17:40:43.711Z,9.25
2022-10-18T17:43:30.963Z,9.90
2022-10-18T17:46:19.483Z,10.32
2022-10-18T17:49:07.107Z,9.03
2022-10-18T17:51:54.682Z,6.70
2022-10-18T17:54:41.826Z,9.23
2022-10-18T17:57:28.992Z,8.65
2022-10-18T18:00:17.131Z,9.38
2022-10-18T18:03:05.020Z,13.50
2022-10-18T18:05:52.298Z,13.60
2022-10-18T18:08:39.484Z,9.50
2022-10-18T18:11:27.069Z,8.03
2022-10-18T18:14:15.926Z,12.05
2022-10-18T18:17:03.095Z,9.83
2022-10-18T18:19:50.665Z,7.72
2022-10-18T18:22:40.506Z,10.25
2022-10-18T18:25:27.202Z,7.55
2022-10-18T18:28:15.564Z,6.87
2022-10-18T18:31:12.002Z,6.95
2022-10-18T18:33:59.921Z,11.33
2022-10-18T18:36:48.573Z,8.08
2022-10-18T18:39:38.605Z,8.93
2022-10-18T18:42:26.239Z,8.90
2022-10-18T18:45:13.530Z,10.53
2022-10-18T18:48:00.932Z,8.30
2022-10-18T18:50:52.372Z,9.35
2022-10-18T18:53:41.742Z,8.53
2022-10-18T18:56:29.353Z,17.87
2022-10-18T18:59:17.138Z,13.10
2022-10-18T19:02:04.333Z,13.95
2022-10-18T19:04:51.677Z,10.00
2022-10-18T19:07:38.655Z,11.18
2022-10-18T19:10:26.302Z,14.23
2022-10-18T19:13:13.612Z,11.48
2022-10-18T19:16:32.480Z,8.18
2022-10-18T19:19:22.396Z,9.18
2022-10-18T19:22:11.052Z,9.85
2022-10-18T19:24:58.499Z,17.30
2022-10-18T19:27:45.960Z,9.25
2022-10-18T19:30:33.531Z,14.75
2022-10-18T19:33:35.586Z,11.40
2022-10-18T19:36:11.131Z,11.00
2022-10-18T19:38:59.157Z,15.88
2022-10-18T19:41:47.399Z,17.30
2022-10-18T19:44:36.743Z,13.22
2022-10-18T19:47:23.983Z,16.27
2022-10-18T19:50:11.321Z,18.48
2022-10-18T19:52:58.863Z,19.98
2022-10-18T19:55:46.002Z,13.50
2022-10-18T19:58:34.190Z,14.07
2022-10-18T20:01:21.853Z,20.15
2022-10-18T20:04:10.078Z,14.43
2022-10-18T20:06:57.245Z,15.88
2022-10-18T20:09:44.503Z,21.85
2022-10-18T20:12:32.368Z,17.32
2022-10-18T20:15:19.567Z,21.85
2022-10-18T20:18:06.781Z,17.98
2022-10-18T20:20:55.264Z,17.35
2022-10-18T20:23:44.321Z,20.65
2022-10-18T20:26:31.802Z,20.62
2022-10-18T20:29:19.068Z,15.45
2022-10-18T20:32:06.733Z,18.80
2022-10-18T20:34:55.522Z,18.65
2022-10-18T20:37:42.836Z,20.32
2022-10-18T20:40:30.061Z,19.37
2022-10-18T20:43:17.889Z,16.27
2022-10-18T20:46:06.059Z,15.00
2022-10-18T20:48:54.245Z,22.70
2022-10-18T20:51:43.141Z,19.27
2022-10-18T20:54:30.391Z,21.02
2022-10-18T20:57:18.094Z,23.65
2022-10-18T21:00:07.584Z,20.00
2022-10-18T21:02:56.654Z,31.27
2022-10-18T21:05:44.203Z,21.00
2022-10-18T21:08:31.833Z,29.05
2022-10-18T21:11:19.054Z,23.18
2022-10-18T21:14:07.411Z,26.45
2022-10-18T21:16:54.951Z,28.98
2022-10-18T21:19:42.560Z,28.32
2022-10-18T21:22:30.072Z,33.63
2022-10-18T21:25:17.407Z,25.25
2022-10-18T21:28:04.994Z,22.60
2022-10-18T21:30:52.265Z,29.05
2022-10-18T21:33:39.875Z,38.28
2022-10-18T21:36:29.529Z,31.60
2022-10-18T21:39:20.221Z,17.02
2022-10-18T21:42:07.233Z,19.42
2022-10-18T21:44:54.769Z,21.12
2022-10-18T21:47:42.316Z,28.42
2022-10-18T21:50:29.749Z,27.58
2022-10-18T21:53:17.087Z,31.23
2022-10-18T21:56:16.942Z,24.02
2022-10-18T21:59:04.871Z,31.68
2022-10-18T22:01:53.323Z,25.00
2022-10-18T22:04:42.219Z,20.08
2022-10-18T22:07:29.837Z,19.15
2022-10-18T22:10:17.169Z,19.27
2022-10-18T22:13:04.705Z,16.20
2022-10-18T22:15:52.104Z,12.78
2022-10-18T22:18:39.681Z,16.67
2022-10-18T22:21:26.847Z,15.93
2022-10-18T22:24:14.496Z,14.47
2022-10-18T22:27:02.028Z,12.85
2022-10-18T22:29:49.550Z,13.75
2022-10-18T22:32:36.927Z,14.65
2022-10-18T22:35:24.126Z,21.52
2022-10-18T22:38:11.386Z,14.25
2022-10-18T22:40:58.992Z,17.45
2022-10-18T22:43:47.720Z,18.00
2022-10-18T22:46:35.997Z,14.38
2022-10-18T22:49:23.211Z,17.35
2022-10-18T22:52:10.850Z,14.95
2022-10-18T22:54:58.278Z,18.92
2022-10-18T22:57:45.510Z,18.20
2022-10-18T23:00:32.812Z,19.48
2022-10-18T23:03:20.285Z,24.20
2022-10-18T23:06:19.911Z,22.35
2022-10-18T23:09:10.203Z,22.13
2022-10-18T23:11:57.690Z,22.90
2022-10-18T23:14:45.828Z,20.35
2022-10-18T23:17:33.411Z,22.93
2022-10-18T23:20:21.494Z,25.15
2022-10-18T23:23:09.028Z,23.95
2022-10-18T23:25:56.222Z,26.87
2022-10-18T23:28:45.707Z,21.65
2022-10-18T23:31:34.094Z,22.62
2022-10-18T23:34:22.011Z,31.48
2022-10-18T23:37:09.175Z,22.32
2022-10-18T23:39:56.897Z,21.25
2022-10-18T23:42:44.232Z,26.60
2022-10-18T23:45:31.868Z,21.73
2022-10-18T23:48:19.252Z,25.23
2022-10-18T23:51:07.149Z,25.52
2022-10-18T23:53:54.576Z,25.97
2022-10-18T23:56:41.841Z,23.50
2022-10-18T23:59:29.384Z,27.42
